sensor_id;sensor_type;location;lat;lon;timestamp;P1;durP1;ratioP1;P2;durP2;ratioP2
16326;SDS011;34812;49.846;9.610;2023-06-14T00:00:16;2.70;;;2.28;;
16326;SDS011;34812;49.846;9.610;2023-06-14T00:05:19;2.55;;;2.13;;
16326;SDS011;34812;49.846;9.610;2023-06-14T00:10:23;2.15;;;1.95;;
16326;SDS011;34812;49.846;9.610;2023-06-14T00:15:26;2.47;;;2.28;;
16326;SDS011;34812;49.846;9.610;2023-06-14T00:20:31;3.45;;;2.50;;
16326;SDS011;34812;49.846;9.610;2023-06-14T00:25:34;2.33;;;2.03;;
16326;SDS011;34812;49.846;9.610;2023-06-14T00:30:36;2.55;;;2.35;;
16326;SDS011;34812;49.846;9.610;2023-06-14T00:35:39;2.47;;;2.20;;
16326;SDS011;34812;49.846;9.610;2023-06-14T00:40:41;3.17;;;2.20;;
16326;SDS011;34812;49.846;9.610;2023-06-14T00:45:47;3.20;;;2.13;;
16326;SDS011;34812;49.846;9.610;2023-06-14T00:50:51;2.00;;;1.75;;
16326;SDS011;34812;49.846;9.610;2023-06-14T00:55:53;3.40;;;2.13;;
16326;SDS011;34812;49.846;9.610;2023-06-14T01:00:55;2.30;;;2.10;;
16326;SDS011;34812;49.846;9.610;2023-06-14T01:06:02;2.90;;;2.63;;
16326;SDS011;34812;49.846;9.610;2023-06-14T01:11:07;2.60;;;2.13;;
16326;SDS011;34812;49.846;9.610;2023-06-14T01:16:12;2.45;;;2.25;;
16326;SDS011;34812;49.846;9.610;2023-06-14T01:21:23;2.67;;;2.17;;
16326;SDS011;34812;49.846;9.610;2023-06-14T01:26:27;3.05;;;2.50;;
16326;SDS011;34812;49.846;9.610;2023-06-14T01:31:29;4.03;;;2.20;;
16326;SDS011;34812;49.846;9.610;2023-06-14T01:36:41;2.83;;;2.25;;
16326;SDS011;34812;49.846;9.610;2023-06-14T01:41:46;3.08;;;2.05;;
16326;SDS011;34812;49.846;9.610;2023-06-14T01:46:49;2.53;;;2.30;;
16326;SDS011;34812;49.846;9.610;2023-06-14T01:51:51;3.65;;;2.58;;
16326;SDS011;34812;49.846;9.610;2023-06-14T01:56:55;2.78;;;2.17;;
16326;SDS011;34812;49.846;9.610;2023-06-14T02:01:57;2.53;;;2.33;;
16326;SDS011;34812;49.846;9.610;2023-06-14T02:06:59;4.80;;;2.50;;
16326;SDS011;34812;49.846;9.610;2023-06-14T02:12:03;4.15;;;2.70;;
16326;SDS011;34812;49.846;9.610;2023-06-14T02:17:05;2.00;;;1.88;;
16326;SDS011;34812;49.846;9.610;2023-06-14T02:22:08;2.97;;;2.00;;
16326;SDS011;34812;49.846;9.610;2023-06-14T02:27:11;3.45;;;2.40;;
16326;SDS011;34812;49.846;9.610;2023-06-14T02:32:13;3.00;;;2.20;;
16326;SDS011;34812;49.846;9.610;2023-06-14T02:37:15;2.92;;;2.35;;
16326;SDS011;34812;49.846;9.610;2023-06-14T02:42:19;3.15;;;2.63;;
16326;SDS011;34812;49.846;9.610;2023-06-14T02:47:21;3.33;;;2.03;;
16326;SDS011;34812;49.846;9.610;2023-06-14T02:52:24;3.75;;;2.25;;
16326;SDS011;34812;49.846;9.610;2023-06-14T02:57:28;4.38;;;2.60;;
16326;SDS011;34812;49.846;9.610;2023-06-14T03:02:30;3.20;;;2.22;;
16326;SDS011;34812;49.846;9.610;2023-06-14T03:07:32;3.35;;;2.63;;
16326;SDS011;34812;49.846;9.610;2023-06-14T03:12:37;2.33;;;2.13;;
16326;SDS011;34812;49.846;9.610;2023-06-14T03:17:40;2.50;;;2.30;;
16326;SDS011;34812;49.846;9.610;2023-06-14T03:22:46;3.60;;;2.42;;
16326;SDS011;34812;49.846;9.610;2023-06-14T03:27:50;2.65;;;2.42;;
16326;SDS011;34812;49.846;9.610;2023-06-14T03:32:53;2.53;;;2.08;;
16326;SDS011;34812;49.846;9.610;2023-06-14T03:37:57;2.28;;;2.08;;
16326;SDS011;34812;49.846;9.610;2023-06-14T03:43:01;5.72;;;2.17;;
16326;SDS011;34812;49.846;9.610;2023-06-14T03:48:03;5.45;;;2.80;;
16326;SDS011;34812;49.846;9.610;2023-06-14T03:53:06;2.35;;;2.15;;
16326;SDS011;34812;49.846;9.610;2023-06-14T03:58:13;2.30;;;2.10;;
16326;SDS011;34812;49.846;9.610;2023-06-14T04:03:16;2.88;;;2.40;;
16326;SDS011;34812;49.846;9.610;2023-06-14T04:08:19;3.03;;;2.50;;
16326;SDS011;34812;49.846;9.610;2023-06-14T04:13:23;3.13;;;2.25;;
16326;SDS011;34812;49.846;9.610;2023-06-14T04:18:25;3.70;;;2.60;;
16326;SDS011;34812;49.846;9.610;2023-06-14T04:23:29;3.30;;;2.33;;
16326;SDS011;34812;49.846;9.610;2023-06-14T04:28:36;5.43;;;2.80;;
16326;SDS011;34812;49.846;9.610;2023-06-14T04:33:40;8.23;;;2.58;;
16326;SDS011;34812;49.846;9.610;2023-06-14T04:38:49;4.53;;;2.42;;
16326;SDS011;34812;49.846;9.610;2023-06-14T04:43:57;3.53;;;2.28;;
16326;SDS011;34812;49.846;9.610;2023-06-14T04:49:02;4.38;;;3.17;;
16326;SDS011;34812;49.846;9.610;2023-06-14T04:54:04;2.63;;;2.35;;
16326;SDS011;34812;49.846;9.610;2023-06-14T04:59:11;3.15;;;2.40;;
16326;SDS011;34812;49.846;9.610;2023-06-14T05:04:15;2.47;;;2.28;;
16326;SDS011;34812;49.846;9.610;2023-06-14T05:09:17;2.85;;;2.42;;
16326;SDS011;34812;49.846;9.610;2023-06-14T05:14:21;2.65;;;2.40;;
16326;SDS011;34812;49.846;9.610;2023-06-14T05:19:24;7.55;;;2.10;;
16326;SDS011;34812;49.846;9.610;2023-06-14T05:24:26;2.40;;;2.20;;
16326;SDS011;34812;49.846;9.610;2023-06-14T05:29:31;4.18;;;2.40;;
16326;SDS011;34812;49.846;9.610;2023-06-14T05:34:34;3.55;;;2.40;;
16326;SDS011;34812;49.846;9.610;2023-06-14T05:39:36;2.47;;;2.13;;
16326;SDS011;34812;49.846;9.610;2023-06-14T05:44:39;3.90;;;2.25;;
16326;SDS011;34812;49.846;9.610;2023-06-14T05:49:41;6.18;;;2.30;;
16326;SDS011;34812;49.846;9.610;2023-06-14T05:54:43;5.32;;;2.92;;
16326;SDS011;34812;49.846;9.610;2023-06-14T05:59:47;4.82;;;2.35;;
16326;SDS011;34812;49.846;9.610;2023-06-14T06:04:50;3.28;;;2.55;;
16326;SDS011;34812;49.846;9.610;2023-06-14T06:09:52;5.65;;;2.33;;
16326;SDS011;34812;49.846;9.610;2023-06-14T06:14:56;2.60;;;2.20;;
16326;SDS011;34812;49.846;9.610;2023-06-14T06:19:58;4.57;;;1.85;;
16326;SDS011;34812;49.846;9.610;2023-06-14T06:25:00;3.38;;;1.75;;
16326;SDS011;34812;49.846;9.610;2023-06-14T06:30:04;2.17;;;1.98;;
16326;SDS011;34812;49.846;9.610;2023-06-14T06:35:07;4.07;;;2.15;;
16326;SDS011;34812;49.846;9.610;2023-06-14T06:40:11;2.83;;;1.95;;
16326;SDS011;34812;49.846;9.610;2023-06-14T06:45:14;3.60;;;1.90;;
16326;SDS011;34812;49.846;9.610;2023-06-14T06:50:17;2.47;;;1.90;;
16326;SDS011;34812;49.846;9.610;2023-06-14T06:55:20;1.80;;;1.60;;
16326;SDS011;34812;49.846;9.610;2023-06-14T07:00:23;2.60;;;2.20;;
16326;SDS011;34812;49.846;9.610;2023-06-14T07:05:25;2.83;;;1.83;;
16326;SDS011;34812;49.846;9.610;2023-06-14T07:10:28;2.88;;;1.90;;
16326;SDS011;34812;49.846;9.610;2023-06-14T07:15:32;2.33;;;2.13;;
16326;SDS011;34812;49.846;9.610;2023-06-14T07:20:34;2.50;;;2.03;;
16326;SDS011;34812;49.846;9.610;2023-06-14T07:25:38;2.45;;;2.00;;
16326;SDS011;34812;49.846;9.610;2023-06-14T07:30:41;2.28;;;2.08;;
16326;SDS011;34812;49.846;9.610;2023-06-14T07:35:43;7.47;;;2.75;;
16326;SDS011;34812;49.846;9.610;2023-06-14T07:40:46;7.50;;;1.65;;
16326;SDS011;34812;49.846;9.610;2023-06-14T07:45:49;5.65;;;2.00;;
16326;SDS011;34812;49.846;9.610;2023-06-14T07:50:51;4.38;;;1.80;;
16326;SDS011;34812;49.846;9.610;2023-06-14T07:55:53;4.07;;;1.88;;
16326;SDS011;34812;49.846;9.610;2023-06-14T08:00:57;2.28;;;1.98;;
16326;SDS011;34812;49.846;9.610;2023-06-14T08:06:01;2.80;;;2.00;;
16326;SDS011;34812;49.846;9.610;2023-06-14T08:11:04;3.22;;;1.80;;
16326;SDS011;34812;49.846;9.610;2023-06-14T08:16:08;2.05;;;1.50;;
16326;SDS011;34812;49.846;9.610;2023-06-14T08:21:11;8.30;;;1.95;;
16326;SDS011;34812;49.846;9.610;2023-06-14T08:26:14;1.92;;;1.65;;
16326;SDS011;34812;49.846;9.610;2023-06-14T08:31:18;11.60;;;2.42;;
16326;SDS011;34812;49.846;9.610;2023-06-14T08:36:20;2.55;;;1.67;;
16326;SDS011;34812;49.846;9.610;2023-06-14T08:41:23;5.05;;;2.10;;
16326;SDS011;34812;49.846;9.610;2023-06-14T08:46:26;6.28;;;2.03;;
16326;SDS011;34812;49.846;9.610;2023-06-14T08:51:29;2.20;;;1.60;;
16326;SDS011;34812;49.846;9.610;2023-06-14T08:56:34;3.33;;;1.75;;
16326;SDS011;34812;49.846;9.610;2023-06-14T09:01:42;1.73;;;1.60;;
16326;SDS011;34812;49.846;9.610;2023-06-14T09:06:45;3.95;;;1.80;;
16326;SDS011;34812;49.846;9.610;2023-06-14T09:11:52;5.30;;;1.50;;
16326;SDS011;34812;49.846;9.610;2023-06-14T09:16:56;1.95;;;1.55;;
16326;SDS011;34812;49.846;9.610;2023-06-14T09:21:58;2.50;;;1.85;;
16326;SDS011;34812;49.846;9.610;2023-06-14T09:27:00;3.65;;;1.88;;
16326;SDS011;34812;49.846;9.610;2023-06-14T09:32:05;2.42;;;1.52;;
16326;SDS011;34812;49.846;9.610;2023-06-14T09:37:07;3.08;;;1.40;;
16326;SDS011;34812;49.846;9.610;2023-06-14T09:42:15;4.50;;;1.45;;
16326;SDS011;34812;49.846;9.610;2023-06-14T09:47:20;2.67;;;1.95;;
16326;SDS011;34812;49.846;9.610;2023-06-14T09:52:22;2.22;;;1.52;;
16326;SDS011;34812;49.846;9.610;2023-06-14T09:57:26;2.17;;;1.73;;
16326;SDS011;34812;49.846;9.610;2023-06-14T10:02:34;2.78;;;1.73;;
16326;SDS011;34812;49.846;9.610;2023-06-14T10:07:39;1.90;;;1.60;;
16326;SDS011;34812;49.846;9.610;2023-06-14T10:12:42;3.03;;;1.77;;
16326;SDS011;34812;49.846;9.610;2023-06-14T10:17:46;4.97;;;1.67;;
16326;SDS011;34812;49.846;9.610;2023-06-14T10:22:50;3.00;;;1.35;;
16326;SDS011;34812;49.846;9.610;2023-06-14T10:27:53;5.85;;;1.83;;
16326;SDS011;34812;49.846;9.610;2023-06-14T10:33:06;37.05;;;10.25;;
16326;SDS011;34812;49.846;9.610;2023-06-14T10:38:08;63.28;;;18.27;;
16326;SDS011;34812;49.846;9.610;2023-06-14T10:43:23;54.83;;;15.23;;
16326;SDS011;34812;49.846;9.610;2023-06-14T10:48:30;42.97;;;12.70;;
16326;SDS011;34812;49.846;9.610;2023-06-14T10:53:38;39.72;;;11.88;;
16326;SDS011;34812;49.846;9.610;2023-06-14T10:58:41;46.95;;;12.77;;
16326;SDS011;34812;49.846;9.610;2023-06-14T11:03:47;36.05;;;11.30;;
16326;SDS011;34812;49.846;9.610;2023-06-14T11:14:12;28.50;;;9.27;;
16326;SDS011;34812;49.846;9.610;2023-06-14T11:19:16;22.65;;;7.95;;
16326;SDS011;34812;49.846;9.610;2023-06-14T11:24:19;27.80;;;9.00;;
16326;SDS011;34812;49.846;9.610;2023-06-14T11:29:21;19.55;;;7.07;;
16326;SDS011;34812;49.846;9.610;2023-06-14T11:34:25;24.83;;;6.70;;
16326;SDS011;34812;49.846;9.610;2023-06-14T11:39:27;17.95;;;6.93;;
16326;SDS011;34812;49.846;9.610;2023-06-14T11:44:29;15.50;;;5.82;;
16326;SDS011;34812;49.846;9.610;2023-06-14T11:49:36;22.50;;;6.78;;
16326;SDS011;34812;49.846;9.610;2023-06-14T11:54:38;16.30;;;5.72;;
16326;SDS011;34812;49.846;9.610;2023-06-14T11:59:41;13.48;;;4.68;;
16326;SDS011;34812;49.846;9.610;2023-06-14T12:04:46;12.63;;;5.05;;
16326;SDS011;34812;49.846;9.610;2023-06-14T12:10:04;15.27;;;4.47;;
16326;SDS011;34812;49.846;9.610;2023-06-14T12:15:08;7.72;;;3.95;;
16326;SDS011;34812;49.846;9.610;2023-06-14T12:20:13;6.57;;;3.28;;
16326;SDS011;34812;49.846;9.610;2023-06-14T12:25:23;6.65;;;3.30;;
16326;SDS011;34812;49.846;9.610;2023-06-14T12:30:27;4.20;;;2.80;;
16326;SDS011;34812;49.846;9.610;2023-06-14T12:35:30;6.40;;;3.03;;
16326;SDS011;34812;49.846;9.610;2023-06-14T12:40:32;6.13;;;2.65;;
16326;SDS011;34812;49.846;9.610;2023-06-14T12:45:37;7.80;;;2.47;;
16326;SDS011;34812;49.846;9.610;2023-06-14T12:50:41;6.40;;;2.42;;
16326;SDS011;34812;49.846;9.610;2023-06-14T12:55:43;4.10;;;2.15;;
16326;SDS011;34812;49.846;9.610;2023-06-14T13:00:45;5.55;;;2.22;;
16326;SDS011;34812;49.846;9.610;2023-06-14T13:05:49;4.28;;;1.83;;
16326;SDS011;34812;49.846;9.610;2023-06-14T13:10:51;5.50;;;2.30;;
16326;SDS011;34812;49.846;9.610;2023-06-14T13:15:53;4.82;;;1.90;;
16326;SDS011;34812;49.846;9.610;2023-06-14T13:20:57;3.88;;;1.80;;
16326;SDS011;34812;49.846;9.610;2023-06-14T13:25:59;2.53;;;1.77;;
16326;SDS011;34812;49.846;9.610;2023-06-14T13:31:01;4.50;;;2.17;;
16326;SDS011;34812;49.846;9.610;2023-06-14T13:36:05;4.88;;;2.40;;
16326;SDS011;34812;49.846;9.610;2023-06-14T13:41:07;3.95;;;2.10;;
16326;SDS011;34812;49.846;9.610;2023-06-14T13:46:09;4.25;;;2.42;;
16326;SDS011;34812;49.846;9.610;2023-06-14T13:51:13;4.28;;;2.30;;
16326;SDS011;34812;49.846;9.610;2023-06-14T13:56:15;3.30;;;2.08;;
16326;SDS011;34812;49.846;9.610;2023-06-14T14:01:17;4.50;;;2.17;;
16326;SDS011;34812;49.846;9.610;2023-06-14T14:06:21;5.40;;;2.00;;
16326;SDS011;34812;49.846;9.610;2023-06-14T14:11:23;4.28;;;2.10;;
16326;SDS011;34812;49.846;9.610;2023-06-14T14:16:25;6.18;;;1.92;;
16326;SDS011;34812;49.846;9.610;2023-06-14T14:21:29;2.38;;;1.88;;
16326;SDS011;34812;49.846;9.610;2023-06-14T14:26:31;2.45;;;1.80;;
16326;SDS011;34812;49.846;9.610;2023-06-14T14:31:33;4.20;;;1.60;;
16326;SDS011;34812;49.846;9.610;2023-06-14T14:36:36;3.50;;;1.50;;
16326;SDS011;34812;49.846;9.610;2023-06-14T14:41:42;3.58;;;1.85;;
16326;SDS011;34812;49.846;9.610;2023-06-14T14:46:44;4.03;;;2.00;;
16326;SDS011;34812;49.846;9.610;2023-06-14T14:51:47;4.22;;;2.03;;
16326;SDS011;34812;49.846;9.610;2023-06-14T14:56:50;3.10;;;2.05;;
16326;SDS011;34812;49.846;9.610;2023-06-14T15:01:52;5.20;;;2.13;;
16326;SDS011;34812;49.846;9.610;2023-06-14T15:06:55;5.80;;;1.67;;
16326;SDS011;34812;49.846;9.610;2023-06-14T15:11:57;4.03;;;2.08;;
16326;SDS011;34812;49.846;9.610;2023-06-14T15:16:59;3.17;;;1.92;;
16326;SDS011;34812;49.846;9.610;2023-06-14T15:22:04;2.45;;;2.03;;
16326;SDS011;34812;49.846;9.610;2023-06-14T15:27:06;2.17;;;1.60;;
16326;SDS011;34812;49.846;9.610;2023-06-14T15:32:08;2.75;;;2.00;;
16326;SDS011;34812;49.846;9.610;2023-06-14T15:37:12;4.43;;;1.73;;
16326;SDS011;34812;49.846;9.610;2023-06-14T15:42:14;1.48;;;1.25;;
16326;SDS011;34812;49.846;9.610;2023-06-14T15:47:16;2.78;;;1.60;;
16326;SDS011;34812;49.846;9.610;2023-06-14T15:52:20;5.45;;;1.45;;
16326;SDS011;34812;49.846;9.610;2023-06-14T15:57:22;2.28;;;1.35;;
16326;SDS011;34812;49.846;9.610;2023-06-14T16:02:24;2.00;;;1.50;;
16326;SDS011;34812;49.846;9.610;2023-06-14T16:07:27;2.28;;;1.38;;
16326;SDS011;34812;49.846;9.610;2023-06-14T16:12:29;1.92;;;1.58;;
16326;SDS011;34812;49.846;9.610;2023-06-14T16:17:31;1.70;;;1.23;;
16326;SDS011;34812;49.846;9.610;2023-06-14T16:22:36;2.20;;;1.40;;
16326;SDS011;34812;49.846;9.610;2023-06-14T16:27:38;1.85;;;1.42;;
16326;SDS011;34812;49.846;9.610;2023-06-14T16:32:40;2.10;;;1.30;;
16326;SDS011;34812;49.846;9.610;2023-06-14T16:37:44;1.92;;;1.33;;
16326;SDS011;34812;49.846;9.610;2023-06-14T16:42:46;1.30;;;1.20;;
16326;SDS011;34812;49.846;9.610;2023-06-14T16:47:49;2.40;;;1.42;;
16326;SDS011;34812;49.846;9.610;2023-06-14T16:52:52;2.08;;;1.52;;
16326;SDS011;34812;49.846;9.610;2023-06-14T16:57:55;1.40;;;1.30;;
16326;SDS011;34812;49.846;9.610;2023-06-14T17:02:57;1.30;;;1.20;;
16326;SDS011;34812;49.846;9.610;2023-06-14T17:08:01;3.13;;;1.33;;
16326;SDS011;34812;49.846;9.610;2023-06-14T17:13:03;2.90;;;1.40;;
16326;SDS011;34812;49.846;9.610;2023-06-14T17:18:06;1.40;;;1.17;;
16326;SDS011;34812;49.846;9.610;2023-06-14T17:23:09;1.20;;;1.10;;
16326;SDS011;34812;49.846;9.610;2023-06-14T17:28:11;1.23;;;1.13;;
16326;SDS011;34812;49.846;9.610;2023-06-14T17:33:13;3.58;;;1.58;;
16326;SDS011;34812;49.846;9.610;2023-06-14T17:38:18;1.48;;;1.38;;
16326;SDS011;34812;49.846;9.610;2023-06-14T17:43:20;2.53;;;1.27;;
16326;SDS011;34812;49.846;9.610;2023-06-14T17:48:23;1.55;;;1.25;;
16326;SDS011;34812;49.846;9.610;2023-06-14T17:53:27;1.25;;;1.13;;
16326;SDS011;34812;49.846;9.610;2023-06-14T17:58:29;1.20;;;1.00;;
16326;SDS011;34812;49.846;9.610;2023-06-14T18:03:31;2.70;;;1.30;;
16326;SDS011;34812;49.846;9.610;2023-06-14T18:08:34;2.28;;;1.23;;
16326;SDS011;34812;49.846;9.610;2023-06-14T18:13:37;2.88;;;1.10;;
16326;SDS011;34812;49.846;9.610;2023-06-14T18:18:39;1.10;;;0.98;;
16326;SDS011;34812;49.846;9.610;2023-06-14T18:23:42;1.63;;;1.20;;
16326;SDS011;34812;49.846;9.610;2023-06-14T18:28:46;1.35;;;1.10;;
16326;SDS011;34812;49.846;9.610;2023-06-14T18:33:48;1.10;;;1.00;;
16326;SDS011;34812;49.846;9.610;2023-06-14T18:38:51;3.10;;;1.30;;
16326;SDS011;34812;49.846;9.610;2023-06-14T18:43:53;1.52;;;1.25;;
16326;SDS011;34812;49.846;9.610;2023-06-14T18:48:56;1.42;;;1.08;;
16326;SDS011;34812;49.846;9.610;2023-06-14T18:53:59;1.58;;;1.48;;
16326;SDS011;34812;49.846;9.610;2023-06-14T18:59:02;2.33;;;0.90;;
16326;SDS011;34812;49.846;9.610;2023-06-14T19:04:04;1.33;;;1.23;;
16326;SDS011;34812;49.846;9.610;2023-06-14T19:09:08;3.00;;;1.35;;
16326;SDS011;34812;49.846;9.610;2023-06-14T19:14:10;4.88;;;1.40;;
16326;SDS011;34812;49.846;9.610;2023-06-14T19:19:12;1.40;;;1.30;;
16326;SDS011;34812;49.846;9.610;2023-06-14T19:24:15;1.52;;;1.23;;
16326;SDS011;34812;49.846;9.610;2023-06-14T19:29:18;2.00;;;1.40;;
16326;SDS011;34812;49.846;9.610;2023-06-14T19:34:20;1.50;;;1.40;;
16326;SDS011;34812;49.846;9.610;2023-06-14T19:39:24;1.15;;;1.05;;
16326;SDS011;34812;49.846;9.610;2023-06-14T19:44:26;1.13;;;1.08;;
16326;SDS011;34812;49.846;9.610;2023-06-14T19:49:28;1.63;;;1.30;;
16326;SDS011;34812;49.846;9.610;2023-06-14T19:54:32;2.80;;;1.30;;
16326;SDS011;34812;49.846;9.610;2023-06-14T19:59:34;2.80;;;1.08;;
16326;SDS011;34812;49.846;9.610;2023-06-14T20:04:36;1.40;;;1.30;;
16326;SDS011;34812;49.846;9.610;2023-06-14T20:09:40;2.05;;;1.10;;
16326;SDS011;34812;49.846;9.610;2023-06-14T20:14:42;1.88;;;1.30;;
16326;SDS011;34812;49.846;9.610;2023-06-14T20:19:44;9.35;;;1.63;;
16326;SDS011;34812;49.846;9.610;2023-06-14T20:24:49;2.50;;;1.20;;
16326;SDS011;34812;49.846;9.610;2023-06-14T20:29:51;2.45;;;1.17;;
16326;SDS011;34812;49.846;9.610;2023-06-14T20:34:53;1.30;;;1.20;;
16326;SDS011;34812;49.846;9.610;2023-06-14T20:39:56;3.72;;;1.45;;
16326;SDS011;34812;49.846;9.610;2023-06-14T20:45:03;1.50;;;1.35;;
16326;SDS011;34812;49.846;9.610;2023-06-14T20:50:06;2.65;;;1.50;;
16326;SDS011;34812;49.846;9.610;2023-06-14T20:55:12;1.27;;;1.17;;
16326;SDS011;34812;49.846;9.610;2023-06-14T21:00:15;1.73;;;1.63;;
16326;SDS011;34812;49.846;9.610;2023-06-14T21:05:18;1.55;;;1.40;;
16326;SDS011;34812;49.846;9.610;2023-06-14T21:10:21;1.65;;;1.40;;
16326;SDS011;34812;49.846;9.610;2023-06-14T21:15:23;2.80;;;1.65;;
16326;SDS011;34812;49.846;9.610;2023-06-14T21:20:25;2.60;;;1.38;;
16326;SDS011;34812;49.846;9.610;2023-06-14T21:25:29;2.17;;;1.85;;
16326;SDS011;34812;49.846;9.610;2023-06-14T21:30:31;1.60;;;1.50;;
16326;SDS011;34812;49.846;9.610;2023-06-14T21:35:34;1.42;;;1.33;;
16326;SDS011;34812;49.846;9.610;2023-06-14T21:40:38;2.63;;;1.40;;
16326;SDS011;34812;49.846;9.610;2023-06-14T21:45:41;2.35;;;1.60;;
16326;SDS011;34812;49.846;9.610;2023-06-14T21:50:44;2.10;;;1.42;;
16326;SDS011;34812;49.846;9.610;2023-06-14T21:55:47;1.42;;;1.30;;
16326;SDS011;34812;49.846;9.610;2023-06-14T22:00:49;2.20;;;1.60;;
16326;SDS011;34812;49.846;9.610;2023-06-14T22:05:51;1.83;;;1.50;;
16326;SDS011;34812;49.846;9.610;2023-06-14T22:10:55;1.63;;;1.52;;
16326;SDS011;34812;49.846;9.610;2023-06-14T22:15:57;1.88;;;1.58;;
16326;SDS011;34812;49.846;9.610;2023-06-14T22:20:59;1.65;;;1.50;;
16326;SDS011;34812;49.846;9.610;2023-06-14T22:26:04;1.92;;;1.63;;
16326;SDS011;34812;49.846;9.610;2023-06-14T22:31:08;1.48;;;1.38;;
16326;SDS011;34812;49.846;9.610;2023-06-14T22:36:11;2.92;;;1.40;;
16326;SDS011;34812;49.846;9.610;2023-06-14T22:41:17;1.70;;;1.40;;
16326;SDS011;34812;49.846;9.610;2023-06-14T22:46:19;1.77;;;1.50;;
16326;SDS011;34812;49.846;9.610;2023-06-14T22:51:23;2.03;;;1.52;;
16326;SDS011;34812;49.846;9.610;2023-06-14T22:56:27;1.55;;;1.42;;
16326;SDS011;34812;49.846;9.610;2023-06-14T23:01:29;1.30;;;1.20;;
16326;SDS011;34812;49.846;9.610;2023-06-14T23:06:33;1.20;;;1.10;;
16326;SDS011;34812;49.846;9.610;2023-06-14T23:11:37;1.35;;;1.20;;
16326;SDS011;34812;49.846;9.610;2023-06-14T23:16:43;2.05;;;1.63;;
16326;SDS011;34812;49.846;9.610;2023-06-14T23:21:47;3.88;;;1.50;;
16326;SDS011;34812;49.846;9.610;2023-06-14T23:26:51;3.22;;;1.48;;
16326;SDS011;34812;49.846;9.610;2023-06-14T23:31:58;1.30;;;1.20;;
16326;SDS011;34812;49.846;9.610;2023-06-14T23:37:00;2.70;;;1.52;;
16326;SDS011;34812;49.846;9.610;2023-06-14T23:42:04;1.60;;;1.50;;
16326;SDS011;34812;49.846;9.610;2023-06-14T23:47:07;2.28;;;1.52;;
16326;SDS011;34812;49.846;9.610;2023-06-14T23:52:10;2.15;;;1.42;;
16326;SDS011;34812;49.846;9.610;2023-06-14T23:57:16;3.70;;;1.77;;
